createdAt,value
2023-02-09T00:00:19.479Z,-1.00
2023-02-09T00:02:47.097Z,-1.10
2023-02-09T00:05:14.327Z,-1.00
2023-02-09T00:07:41.745Z,-1.10
2023-02-09T00:10:09.371Z,-1.10
2023-02-09T00:12:56.000Z,-1.20
2023-02-09T00:15:23.376Z,-1.10
2023-02-09T00:17:50.766Z,-1.20
2023-02-09T00:20:18.489Z,-1.20
2023-02-09T00:22:45.983Z,-1.30
2023-02-09T00:25:13.406Z,-1.40
2023-02-09T00:27:40.789Z,-1.30
2023-02-09T00:30:08.876Z,-1.40
2023-02-09T00:32:36.455Z,-1.40
2023-02-09T00:35:07.768Z,-1.40
2023-02-09T00:37:35.819Z,-1.40
2023-02-09T00:40:03.952Z,-1.50
2023-02-09T00:42:31.341Z,-1.50
2023-02-09T00:44:58.725Z,-1.50
2023-02-09T00:47:26.341Z,-1.40
2023-02-09T00:49:53.585Z,-1.50
2023-02-09T00:52:21.172Z,-1.50
2023-02-09T00:54:48.521Z,-1.50
2023-02-09T00:57:17.295Z,-1.50
2023-02-09T00:59:44.785Z,-1.50
2023-02-09T01:02:12.143Z,-1.60
2023-02-09T01:04:39.665Z,-1.60
2023-02-09T01:07:07.563Z,-1.60
2023-02-09T01:09:35.202Z,-1.60
2023-02-09T01:12:02.785Z,-1.60
2023-02-09T01:14:30.962Z,-1.60
2023-02-09T01:16:59.300Z,-1.60
2023-02-09T01:19:26.824Z,-1.60
2023-02-09T01:21:55.710Z,-1.70
2023-02-09T01:24:23.383Z,-1.70
2023-02-09T01:26:50.821Z,-1.70
2023-02-09T01:29:19.902Z,-1.70
2023-02-09T01:31:48.904Z,-1.70
2023-02-09T01:34:19.029Z,-1.80
2023-02-09T01:36:48.959Z,-1.80
2023-02-09T01:39:16.505Z,-1.80
2023-02-09T01:41:44.176Z,-1.70
2023-02-09T01:44:12.418Z,-1.80
2023-02-09T01:46:40.174Z,-1.90
2023-02-09T01:49:33.904Z,-1.90
2023-02-09T01:52:06.151Z,-1.90
2023-02-09T01:54:47.637Z,-2.00
2023-02-09T01:57:20.501Z,-2.00
2023-02-09T01:59:56.324Z,-2.10
2023-02-09T02:02:24.345Z,-2.10
2023-02-09T02:04:52.404Z,-2.10
2023-02-09T02:07:32.845Z,-2.30
2023-02-09T02:10:02.064Z,-2.30
2023-02-09T02:12:30.471Z,-2.40
2023-02-09T02:14:58.012Z,-2.40
2023-02-09T02:18:03.930Z,-2.40
2023-02-09T02:20:56.234Z,-2.50
2023-02-09T02:23:36.975Z,-2.60
2023-02-09T02:26:18.844Z,-2.60
2023-02-09T02:29:00.664Z,-2.70
2023-02-09T02:31:52.900Z,-2.70
2023-02-09T02:34:36.273Z,-2.80
2023-02-09T02:37:26.319Z,-2.80
2023-02-09T02:40:18.970Z,-2.90
2023-02-09T02:42:58.606Z,-2.90
2023-02-09T02:45:28.991Z,-3.00
2023-02-09T02:48:08.280Z,-3.00
2023-02-09T02:50:39.836Z,-3.00
2023-02-09T02:53:09.782Z,-3.00
2023-02-09T02:55:38.861Z,-3.00
2023-02-09T02:58:09.249Z,-3.10
2023-02-09T03:00:50.919Z,-3.10
2023-02-09T03:03:33.567Z,-3.10
2023-02-09T03:06:04.785Z,-3.10
2023-02-09T03:08:50.387Z,-3.20
2023-02-09T03:11:20.295Z,-3.20
2023-02-09T03:14:11.903Z,-3.20
2023-02-09T03:17:00.387Z,-3.30
2023-02-09T03:19:33.313Z,-3.30
2023-02-09T03:22:14.548Z,-3.40
2023-02-09T03:24:58.224Z,-3.40
2023-02-09T03:27:30.820Z,-3.40
2023-02-09T03:30:01.086Z,-3.50
2023-02-09T03:32:28.717Z,-3.50
2023-02-09T03:34:56.681Z,-3.60
2023-02-09T03:37:24.632Z,-3.60
2023-02-09T03:39:51.866Z,-3.60
2023-02-09T03:42:19.304Z,-3.60
2023-02-09T03:44:46.666Z,-3.60
2023-02-09T03:47:14.154Z,-3.70
2023-02-09T03:49:42.138Z,-3.70
2023-02-09T03:52:14.791Z,-3.70
2023-02-09T03:54:42.351Z,-3.70
2023-02-09T03:57:10.289Z,-3.80
2023-02-09T03:59:37.984Z,-3.80
2023-02-09T04:02:07.734Z,-3.80
2023-02-09T04:04:35.653Z,-3.80
2023-02-09T04:07:03.358Z,-3.80
2023-02-09T04:09:30.941Z,-3.80
2023-02-09T04:11:58.349Z,-3.90
2023-02-09T04:14:25.792Z,-3.90
2023-02-09T04:16:53.425Z,-3.90
2023-02-09T04:19:20.925Z,-3.90
2023-02-09T04:21:48.390Z,-3.90
2023-02-09T04:24:17.658Z,-4.00
2023-02-09T04:26:45.003Z,-4.00
2023-02-09T04:29:12.260Z,-4.00
2023-02-09T04:31:39.682Z,-4.00
2023-02-09T04:34:06.976Z,-4.00
2023-02-09T04:36:34.348Z,-4.00
2023-02-09T04:39:01.895Z,-4.00
2023-02-09T04:41:29.272Z,-4.10
2023-02-09T04:43:56.557Z,-4.10
2023-02-09T04:46:23.900Z,-4.10
2023-02-09T04:48:51.392Z,-4.10
2023-02-09T04:51:18.738Z,-4.20
2023-02-09T04:53:46.133Z,-4.10
2023-02-09T04:56:15.498Z,-4.20
2023-02-09T04:59:02.069Z,-4.20
2023-02-09T05:01:30.502Z,-4.30
2023-02-09T05:03:58.055Z,-4.30
2023-02-09T05:06:25.544Z,-4.30
2023-02-09T05:08:52.930Z,-4.40
2023-02-09T05:11:20.451Z,-4.40
2023-02-09T05:13:47.826Z,-4.40
2023-02-09T05:16:17.643Z,-4.40
2023-02-09T05:18:45.552Z,-4.50
2023-02-09T05:21:14.326Z,-4.50
2023-02-09T05:23:41.938Z,-4.50
2023-02-09T05:26:09.520Z,-4.50
2023-02-09T05:28:37.233Z,-4.50
2023-02-09T05:31:04.790Z,-4.50
2023-02-09T05:33:32.287Z,-4.50
2023-02-09T05:35:59.714Z,-4.60
2023-02-09T05:38:27.129Z,-4.60
2023-02-09T05:40:54.510Z,-4.60
2023-02-09T05:43:21.931Z,-4.60
2023-02-09T05:45:49.285Z,-4.60
2023-02-09T05:48:16.686Z,-4.60
2023-02-09T05:50:44.556Z,-4.60
2023-02-09T05:53:13.299Z,-4.60
2023-02-09T05:55:41.761Z,-4.60
2023-02-09T05:58:09.668Z,-4.60
2023-02-09T06:00:37.056Z,-4.50
2023-02-09T06:03:04.760Z,-4.50
2023-02-09T06:05:32.080Z,-4.50
2023-02-09T06:07:59.317Z,-4.40
2023-02-09T06:10:26.790Z,-4.40
2023-02-09T06:12:54.262Z,-4.40
2023-02-09T06:15:21.661Z,-4.30
2023-02-09T06:17:49.057Z,-4.30
2023-02-09T06:20:16.606Z,-4.30
2023-02-09T06:22:44.007Z,-4.30
2023-02-09T06:25:12.561Z,-4.30
2023-02-09T06:27:40.258Z,-4.20
2023-02-09T06:30:08.661Z,-4.20
2023-02-09T06:32:36.151Z,-4.20
2023-02-09T06:35:03.953Z,-4.20
2023-02-09T06:37:31.516Z,-4.30
2023-02-09T06:39:58.849Z,-4.20
2023-02-09T06:42:43.728Z,-4.30
2023-02-09T06:45:16.413Z,-4.20
2023-02-09T06:47:45.125Z,-4.20
2023-02-09T06:50:14.963Z,-4.20
2023-02-09T06:52:42.827Z,-4.30
2023-02-09T06:55:10.683Z,-4.30
2023-02-09T06:57:38.416Z,-4.30
2023-02-09T07:00:08.442Z,-4.20
2023-02-09T07:02:35.898Z,-4.20
2023-02-09T07:05:03.408Z,-4.20
2023-02-09T07:07:30.826Z,-4.20
2023-02-09T07:09:58.165Z,-4.20
2023-02-09T07:12:25.732Z,-4.10
2023-02-09T07:14:53.874Z,-4.10
2023-02-09T07:17:21.326Z,-4.00
2023-02-09T07:19:49.427Z,-3.90
2023-02-09T07:22:16.742Z,-3.80
2023-02-09T07:24:44.095Z,-3.70
2023-02-09T07:27:11.570Z,-3.50
2023-02-09T07:29:39.085Z,-3.30
2023-02-09T07:32:07.268Z,-3.10
2023-02-09T07:34:35.657Z,-2.80
2023-02-09T07:37:04.087Z,-2.50
2023-02-09T07:39:31.893Z,-2.10
2023-02-09T07:41:59.647Z,-1.70
2023-02-09T07:44:42.586Z,-1.20
2023-02-09T07:47:09.973Z,-0.70
2023-02-09T07:49:37.326Z,-0.30
2023-02-09T07:52:05.262Z,0.10
2023-02-09T07:54:32.758Z,0.40
2023-02-09T07:57:00.130Z,0.80
2023-02-09T07:59:27.546Z,1.20
2023-02-09T08:01:55.016Z,1.60
2023-02-09T08:04:22.766Z,2.00
2023-02-09T08:06:50.476Z,2.40
2023-02-09T08:09:17.969Z,2.90
2023-02-09T08:11:52.036Z,3.40
2023-02-09T08:14:25.118Z,3.90
2023-02-09T08:17:15.002Z,4.30
2023-02-09T08:19:42.967Z,4.70
2023-02-09T08:22:10.843Z,5.20
2023-02-09T08:24:38.344Z,5.50
2023-02-09T08:27:05.803Z,5.80
2023-02-09T08:29:33.341Z,6.10
2023-02-09T08:32:00.864Z,6.40
2023-02-09T08:34:28.364Z,6.70
2023-02-09T08:36:55.753Z,7.00
2023-02-09T08:39:23.219Z,7.30
2023-02-09T08:41:50.576Z,7.50
2023-02-09T08:44:17.946Z,7.70
2023-02-09T08:46:45.624Z,7.80
2023-02-09T08:49:13.317Z,7.80
2023-02-09T08:51:40.768Z,7.60
2023-02-09T08:54:10.874Z,7.20
2023-02-09T08:56:38.395Z,6.80
2023-02-09T08:59:05.865Z,6.40
2023-02-09T09:01:33.725Z,5.90
2023-02-09T09:04:01.507Z,5.50
2023-02-09T09:06:28.994Z,5.10
2023-02-09T09:08:57.149Z,4.80
2023-02-09T09:11:28.115Z,4.40
2023-02-09T09:13:55.944Z,4.10
2023-02-09T09:16:23.905Z,3.90
2023-02-09T09:18:51.597Z,3.70
2023-02-09T09:21:19.793Z,3.50
2023-02-09T09:23:48.114Z,3.30
2023-02-09T09:26:17.016Z,3.30
2023-02-09T09:28:44.739Z,3.10
2023-02-09T09:31:16.672Z,3.00
2023-02-09T09:33:44.818Z,2.90
2023-02-09T09:36:14.581Z,2.90
2023-02-09T09:38:42.670Z,2.80
2023-02-09T09:41:35.727Z,2.80
2023-02-09T09:44:10.065Z,2.70
2023-02-09T09:46:41.064Z,2.60
2023-02-09T09:49:21.160Z,2.40
2023-02-09T09:51:58.302Z,2.40
2023-02-09T09:54:29.056Z,2.30
2023-02-09T09:56:57.047Z,2.30
2023-02-09T09:59:28.761Z,2.20
2023-02-09T10:02:01.515Z,2.20
2023-02-09T10:04:29.463Z,2.20
2023-02-09T10:07:01.858Z,2.10
2023-02-09T10:09:46.066Z,2.10
2023-02-09T10:12:35.427Z,2.10
2023-02-09T10:15:29.704Z,2.10
2023-02-09T10:17:58.271Z,2.20
2023-02-09T10:20:47.059Z,2.20
2023-02-09T10:23:24.535Z,2.20
2023-02-09T10:25:57.586Z,2.20
2023-02-09T10:28:29.391Z,2.20
2023-02-09T10:31:00.483Z,2.20
2023-02-09T10:33:36.778Z,2.30
2023-02-09T10:36:06.829Z,2.30
2023-02-09T10:38:39.350Z,2.40
2023-02-09T10:41:10.041Z,2.40
2023-02-09T10:43:37.471Z,2.50
2023-02-09T10:46:16.155Z,2.50
2023-02-09T10:48:46.310Z,2.60
2023-02-09T10:51:29.916Z,2.60
2023-02-09T10:54:18.138Z,2.70
2023-02-09T10:56:48.536Z,2.70
2023-02-09T10:59:21.949Z,2.80
2023-02-09T11:01:56.387Z,2.80
2023-02-09T11:04:27.513Z,2.80
2023-02-09T11:06:58.768Z,2.80
2023-02-09T11:09:33.980Z,2.90
2023-02-09T11:12:01.819Z,3.00
2023-02-09T11:14:30.002Z,3.10
2023-02-09T11:17:29.623Z,3.20
2023-02-09T11:20:16.117Z,3.30
2023-02-09T11:22:50.864Z,3.40
2023-02-09T11:25:44.650Z,3.50
2023-02-09T11:28:18.838Z,3.60
2023-02-09T11:30:55.469Z,3.70
2023-02-09T11:33:46.930Z,3.80
2023-02-09T11:36:40.943Z,3.80
2023-02-09T11:39:29.795Z,3.80
2023-02-09T11:42:25.673Z,3.90
2023-02-09T11:44:58.669Z,3.90
2023-02-09T11:47:50.898Z,3.80
2023-02-09T11:50:29.234Z,3.90
2023-02-09T11:53:13.845Z,3.90
2023-02-09T11:55:53.765Z,4.00
2023-02-09T11:58:49.170Z,4.10
2023-02-09T12:01:39.832Z,4.20
2023-02-09T12:04:19.970Z,4.30
2023-02-09T12:07:01.396Z,4.40
2023-02-09T12:09:51.412Z,4.50
2023-02-09T12:12:27.616Z,4.60
2023-02-09T12:15:11.526Z,4.60
2023-02-09T12:17:52.811Z,4.60
2023-02-09T12:20:31.457Z,4.70
2023-02-09T12:23:21.613Z,4.70
2023-02-09T12:26:00.284Z,4.80
2023-02-09T12:28:28.940Z,4.80
2023-02-09T12:31:08.553Z,4.80
2023-02-09T12:33:37.515Z,4.90
2023-02-09T12:36:12.576Z,4.90
2023-02-09T12:38:56.358Z,4.90
2023-02-09T12:41:28.170Z,4.90
2023-02-09T12:44:10.752Z,4.90
2023-02-09T12:46:52.908Z,4.90
2023-02-09T12:49:29.972Z,4.90
2023-02-09T12:52:03.318Z,4.90
2023-02-09T12:54:44.716Z,5.00
2023-02-09T12:57:14.937Z,5.00
2023-02-09T13:00:05.408Z,4.90
2023-02-09T13:02:39.401Z,5.00
2023-02-09T13:05:18.776Z,5.00
2023-02-09T13:07:50.287Z,5.00
2023-02-09T13:10:27.762Z,5.00
2023-02-09T13:13:06.564Z,5.00
2023-02-09T13:16:05.458Z,4.90
2023-02-09T13:18:37.436Z,4.90
2023-02-09T13:21:20.098Z,4.90
2023-02-09T13:23:58.379Z,4.90
2023-02-09T13:26:29.226Z,4.90
2023-02-09T13:29:21.483Z,4.80
2023-02-09T13:32:01.440Z,4.80
2023-02-09T13:34:38.060Z,4.80
2023-02-09T13:37:14.286Z,4.80
2023-02-09T13:39:44.076Z,4.80
2023-02-09T13:42:23.144Z,4.80
2023-02-09T13:44:55.472Z,4.80
2023-02-09T13:47:23.911Z,4.80
2023-02-09T13:49:58.529Z,4.80
2023-02-09T13:52:31.689Z,4.80
2023-02-09T13:55:17.350Z,4.80
2023-02-09T13:57:50.407Z,4.90
2023-02-09T14:00:35.880Z,4.90
2023-02-09T14:03:12.289Z,4.90
2023-02-09T14:05:47.216Z,4.90
2023-02-09T14:08:17.594Z,4.90
2023-02-09T14:10:55.472Z,4.90
2023-02-09T14:13:45.243Z,5.00
2023-02-09T14:16:16.864Z,5.00
2023-02-09T14:18:53.781Z,5.00
2023-02-09T14:21:28.110Z,5.10
2023-02-09T14:23:58.597Z,5.10
2023-02-09T14:26:34.181Z,5.10
2023-02-09T14:29:18.069Z,5.10
2023-02-09T14:31:49.263Z,5.20
2023-02-09T14:34:24.271Z,5.10
2023-02-09T14:36:54.597Z,5.10
2023-02-09T14:39:22.709Z,5.10
2023-02-09T14:42:03.022Z,5.10
2023-02-09T14:44:30.525Z,5.10
2023-02-09T14:47:00.963Z,5.10
2023-02-09T14:49:29.341Z,5.10
2023-02-09T14:52:02.690Z,5.10
2023-02-09T14:54:37.083Z,5.10
2023-02-09T14:57:04.687Z,5.10
2023-02-09T14:59:32.067Z,5.10
2023-02-09T15:01:59.635Z,5.00
2023-02-09T15:04:27.280Z,5.00
2023-02-09T15:07:02.529Z,5.10
2023-02-09T15:09:40.737Z,5.00
2023-02-09T15:12:16.112Z,5.00
2023-02-09T15:14:45.811Z,4.90
2023-02-09T15:17:19.175Z,4.90
2023-02-09T15:19:47.171Z,4.90
2023-02-09T15:22:16.220Z,4.80
2023-02-09T15:24:45.857Z,4.80
2023-02-09T15:27:28.041Z,4.80
2023-02-09T15:29:58.965Z,4.70
2023-02-09T15:32:28.385Z,4.70
2023-02-09T15:34:55.842Z,4.70
2023-02-09T15:37:29.113Z,4.60
2023-02-09T15:40:01.569Z,4.60
2023-02-09T15:42:47.589Z,4.60
2023-02-09T15:45:41.706Z,4.50
2023-02-09T15:48:09.755Z,4.50
2023-02-09T15:50:50.618Z,4.50
2023-02-09T15:53:19.220Z,4.40
2023-02-09T15:55:47.427Z,4.40
2023-02-09T15:58:19.038Z,4.30
2023-02-09T16:00:46.723Z,4.20
2023-02-09T16:03:17.627Z,4.20
2023-02-09T16:05:46.056Z,4.10
2023-02-09T16:08:20.026Z,4.10
2023-02-09T16:10:48.476Z,4.00
2023-02-09T16:13:17.745Z,4.00
2023-02-09T16:15:45.497Z,3.90
2023-02-09T16:18:13.312Z,3.90
2023-02-09T16:20:47.178Z,3.80
2023-02-09T16:23:20.798Z,3.70
2023-02-09T16:25:53.401Z,3.60
2023-02-09T16:28:21.906Z,3.60
2023-02-09T16:30:54.980Z,3.40
2023-02-09T16:33:23.804Z,3.40
2023-02-09T16:36:02.460Z,3.20
2023-02-09T16:38:30.868Z,3.10
2023-02-09T16:40:58.244Z,3.00
2023-02-09T16:43:25.733Z,3.00
2023-02-09T16:46:03.159Z,2.90
2023-02-09T16:48:34.384Z,2.80
2023-02-09T16:51:02.384Z,2.70
2023-02-09T16:53:37.132Z,2.70
2023-02-09T16:56:10.105Z,2.60
2023-02-09T16:58:38.863Z,2.60
2023-02-09T17:01:17.545Z,2.50
2023-02-09T17:03:54.413Z,2.40
2023-02-09T17:06:24.470Z,2.30
2023-02-09T17:08:53.252Z,2.30
2023-02-09T17:11:25.682Z,2.20
2023-02-09T17:13:53.573Z,2.20
2023-02-09T17:16:24.530Z,2.10
2023-02-09T17:18:55.164Z,2.00
2023-02-09T17:21:26.285Z,2.00
2023-02-09T17:23:54.642Z,1.90
2023-02-09T17:26:22.129Z,1.80
2023-02-09T17:28:49.789Z,1.80
2023-02-09T17:31:24.589Z,1.80
2023-02-09T17:33:57.338Z,1.70
2023-02-09T17:36:27.967Z,1.70
2023-02-09T17:38:59.957Z,1.60
2023-02-09T17:41:40.738Z,1.60
2023-02-09T17:44:43.791Z,1.50
2023-02-09T17:47:18.027Z,1.50
2023-02-09T17:49:46.294Z,1.40
2023-02-09T17:52:18.413Z,1.40
2023-02-09T17:54:45.875Z,1.40
2023-02-09T17:57:17.511Z,1.40
2023-02-09T17:59:45.988Z,1.30
2023-02-09T18:02:17.081Z,1.30
2023-02-09T18:04:44.713Z,1.20
2023-02-09T18:07:14.248Z,1.20
2023-02-09T18:09:41.598Z,1.10
2023-02-09T18:12:24.713Z,1.10
2023-02-09T18:14:52.579Z,1.10
2023-02-09T18:17:19.849Z,1.10
2023-02-09T18:19:47.278Z,1.00
2023-02-09T18:22:17.169Z,1.00
2023-02-09T18:24:44.766Z,0.90
2023-02-09T18:27:16.440Z,0.90
2023-02-09T18:29:43.959Z,0.90
2023-02-09T18:32:15.363Z,0.90
2023-02-09T18:34:42.854Z,0.80
2023-02-09T18:37:10.078Z,0.80
2023-02-09T18:39:40.625Z,0.80
2023-02-09T18:42:09.410Z,0.70
2023-02-09T18:44:36.796Z,0.70
2023-02-09T18:47:04.273Z,0.70
2023-02-09T18:49:31.876Z,0.70
2023-02-09T18:51:59.394Z,0.60
2023-02-09T18:54:28.867Z,0.60
2023-02-09T18:56:56.720Z,0.50
2023-02-09T18:59:30.594Z,0.50
2023-02-09T19:01:59.030Z,0.50
2023-02-09T19:04:26.684Z,0.50
2023-02-09T19:06:54.223Z,0.40
2023-02-09T19:09:21.752Z,0.40
2023-02-09T19:11:49.290Z,0.40
2023-02-09T19:14:35.226Z,0.40
2023-02-09T19:17:03.255Z,0.40
2023-02-09T19:19:30.653Z,0.30
2023-02-09T19:22:00.102Z,0.30
2023-02-09T19:24:28.246Z,0.20
2023-02-09T19:26:55.999Z,0.20
2023-02-09T19:29:26.335Z,0.30
2023-02-09T19:31:55.506Z,0.20
2023-02-09T19:34:23.484Z,0.10
2023-02-09T19:36:51.112Z,0.10
2023-02-09T19:39:19.261Z,0.10
2023-02-09T19:41:48.924Z,0.10
2023-02-09T19:44:16.397Z,0.10
2023-02-09T19:46:43.841Z,0.00
2023-02-09T19:49:11.439Z,0.00
2023-02-09T19:51:38.967Z,0.00
2023-02-09T19:54:06.430Z,-0.10
2023-02-09T19:56:34.727Z,-0.10
2023-02-09T19:59:02.295Z,-0.10
2023-02-09T20:01:31.533Z,-0.20
2023-02-09T20:03:59.282Z,-0.20
2023-02-09T20:06:27.084Z,-0.30
2023-02-09T20:08:55.104Z,-0.20
2023-02-09T20:11:22.732Z,-0.30
2023-02-09T20:13:51.726Z,-0.40
2023-02-09T20:16:25.052Z,-0.40
2023-02-09T20:18:53.289Z,-0.30
2023-02-09T20:21:22.575Z,-0.40
2023-02-09T20:23:54.363Z,-0.50
2023-02-09T20:26:29.342Z,-0.50
2023-02-09T20:28:57.042Z,-0.50
2023-02-09T20:31:27.857Z,-0.50
2023-02-09T20:33:55.503Z,-0.50
2023-02-09T20:36:24.619Z,-0.60
2023-02-09T20:38:53.269Z,-0.60
2023-02-09T20:41:21.167Z,-0.70
2023-02-09T20:44:07.288Z,-0.60
2023-02-09T20:46:53.302Z,-0.70
2023-02-09T20:49:20.899Z,-0.80
2023-02-09T20:51:49.056Z,-0.80
2023-02-09T20:54:16.471Z,-0.80
2023-02-09T20:56:44.041Z,-0.80
2023-02-09T20:59:13.590Z,-0.90
2023-02-09T21:01:41.841Z,-0.90
2023-02-09T21:04:09.474Z,-0.90
2023-02-09T21:06:38.117Z,-0.90
2023-02-09T21:09:06.797Z,-0.90
2023-02-09T21:11:34.410Z,-1.00
2023-02-09T21:14:02.454Z,-1.00
2023-02-09T21:16:30.911Z,-1.10
2023-02-09T21:18:58.897Z,-1.10
2023-02-09T21:21:27.268Z,-1.10
2023-02-09T21:23:55.150Z,-1.10
2023-02-09T21:26:24.339Z,-1.20
2023-02-09T21:28:56.473Z,-1.10
2023-02-09T21:31:27.272Z,-1.20
2023-02-09T21:33:54.747Z,-1.30
2023-02-09T21:36:22.354Z,-1.30
2023-02-09T21:38:50.068Z,-1.30
2023-02-09T21:41:39.329Z,-1.30
2023-02-09T21:44:09.793Z,-1.40
2023-02-09T21:46:37.459Z,-1.40
2023-02-09T21:49:05.321Z,-1.40
2023-02-09T21:51:33.305Z,-1.40
2023-02-09T21:54:00.714Z,-1.40
2023-02-09T21:56:28.045Z,-1.40
2023-02-09T21:58:55.545Z,-1.40
2023-02-09T22:01:23.343Z,-1.30
2023-02-09T22:03:56.969Z,-1.30
2023-02-09T22:06:25.983Z,-1.40
2023-02-09T22:08:53.677Z,-1.30
2023-02-09T22:11:21.328Z,-1.40
2023-02-09T22:13:48.618Z,-1.40
2023-02-09T22:16:19.560Z,-1.40
2023-02-09T22:18:46.881Z,-1.40
2023-02-09T22:21:14.562Z,-1.40
2023-02-09T22:23:42.208Z,-1.40
2023-02-09T22:26:09.890Z,-1.40
2023-02-09T22:28:37.218Z,-1.40
2023-02-09T22:31:06.872Z,-1.40
2023-02-09T22:33:34.408Z,-1.40
2023-02-09T22:36:12.972Z,-1.50
2023-02-09T22:38:40.606Z,-1.50
2023-02-09T22:41:21.394Z,-1.50
2023-02-09T22:43:51.092Z,-1.50
2023-02-09T22:46:20.255Z,-1.60
2023-02-09T22:48:51.687Z,-1.60
2023-02-09T22:51:19.770Z,-1.60
2023-02-09T22:53:47.956Z,-1.60
2023-02-09T22:56:15.878Z,-1.70
2023-02-09T22:58:43.532Z,-1.70
2023-02-09T23:01:11.241Z,-1.70
2023-02-09T23:03:40.425Z,-1.80
2023-02-09T23:06:12.017Z,-1.80
2023-02-09T23:08:39.667Z,-1.80
2023-02-09T23:11:10.198Z,-1.80
2023-02-09T23:13:38.126Z,-1.80
2023-02-09T23:16:14.338Z,-1.90
2023-02-09T23:18:47.625Z,-1.90
2023-02-09T23:21:16.209Z,-1.90
2023-02-09T23:23:44.094Z,-2.00
2023-02-09T23:26:13.073Z,-2.00
2023-02-09T23:28:40.333Z,-2.00
2023-02-09T23:31:11.092Z,-2.00
2023-02-09T23:33:38.674Z,-2.10
2023-02-09T23:36:27.146Z,-2.10
2023-02-09T23:39:00.682Z,-2.10
2023-02-09T23:41:29.010Z,-2.20
2023-02-09T23:43:57.084Z,-2.30
2023-02-09T23:46:28.571Z,-2.30
2023-02-09T23:48:57.331Z,-2.30
2023-02-09T23:51:28.466Z,-2.40
2023-02-09T23:53:58.394Z,-2.40
2023-02-09T23:56:36.639Z,-2.50
2023-02-09T23:59:06.464Z,-2.50
